Time;durP1;ratioP1;P1;durP2;ratioP2;P2;SDS_P1;SDS_P2;PMS_P1;PMS_P2;Temp;Humidity;BMP_temperature;BMP_pressure;BME280_temperature;BME280_humidity;BME280_pressure;Samples;Min_cycle;Max_cycle;Signal;HPM_P1;HPM_P2
2022/08/03 00:01:43;;;;;;;12.68;3.10;;;;;;;;;;5075401;28;20123;-70
2022/08/03 00:04:10;;;;;;;13.80;3.33;;;21.40;99.90;;;;;;5091906;28;20052;-70
2022/08/03 00:06:36;;;;;;;12.43;3.83;;;;;;;;;;5092091;28;20101;-69
2022/08/03 00:09:05;;;;;;;7.97;3.05;;;20.60;99.90;;;;;;5091993;28;20115;-69
2022/08/03 00:11:31;;;;;;;8.23;3.08;;;19.90;99.90;;;;;;5094354;28;20051;-70
2022/08/03 00:13:57;;;;;;;8.15;3.45;;;;;;;;;;5098758;28;20032;-69
2022/08/03 00:16:24;;;;;;;9.63;3.50;;;21.60;99.90;;;;;;5099048;28;20430;-69
2022/08/03 00:18:50;;;;;;;10.38;3.53;;;;;;;;;;5098767;28;20071;-70
2022/08/03 00:21:16;;;;;;;10.27;3.45;;;19.20;99.90;;;;;;5081846;28;20086;-70
2022/08/03 00:23:42;;;;;;;14.02;4.03;;;;;;;;;;5098704;28;20067;-70
2022/08/03 00:26:08;;;;;;;9.65;3.47;;;;;;;;;;5098588;28;20538;-69
2022/08/03 00:28:34;;;;;;;10.48;3.42;;;;;;;;;;5098604;28;20044;-70
2022/08/03 00:31:00;;;;;;;10.85;3.25;;;19.10;99.90;;;;;;5098592;28;20040;-70
2022/08/03 00:33:25;;;;;;;8.40;3.28;;;19.30;99.90;;;;;;5098737;28;20032;-70
2022/08/03 00:35:51;;;;;;;14.68;3.70;;;;;;;;;;5098888;28;20047;-70
2022/08/03 00:38:18;;;;;;;11.77;3.40;;;19.20;99.90;;;;;;5098886;28;20464;-70
2022/08/03 00:40:44;;;;;;;14.48;4.28;;;19.60;99.90;;;;;;5081756;28;20153;-70
2022/08/03 00:43:10;;;;;;;9.25;3.13;;;;;;;;;;5098639;28;20036;-70
2022/08/03 00:45:41;;;;;;;11.18;3.78;;;19.10;99.90;;;;;;5098951;28;20052;-70
2022/08/03 00:48:08;;;;;;;12.32;3.30;;;19.30;99.90;;;;;;5099129;28;20051;-70
2022/08/03 00:50:38;;;;;;;12.73;2.90;;;20.20;99.90;;;;;;5098737;28;20048;-70
2022/08/03 00:53:05;;;;;;;10.20;3.03;;;19.10;99.90;;;;;;5098495;28;20047;-69
2022/08/03 00:55:30;;;;;;;9.48;3.00;;;21.30;99.90;;;;;;5098483;28;20117;-70
2022/08/03 00:57:58;;;;;;;12.30;3.28;;;;;;;;;;5098328;28;20082;-70
2022/08/03 01:00:26;;;;;;;14.52;3.53;;;19.30;99.90;;;;;;5098409;28;20527;-69
2022/08/03 01:02:53;;;;;;;10.13;3.65;;;21.20;99.90;;;;;;5081593;28;20056;-70
2022/08/03 01:05:20;;;;;;;7.25;3.22;;;18.90;99.90;;;;;;5098193;28;20052;-70
2022/08/03 01:08:18;;;;;;;17.08;3.33;;;20.20;99.90;;;;;;5081523;28;20127;-70
2022/08/03 01:11:08;;;;;;;10.85;3.50;;;20.10;99.90;;;;;;5081487;28;20503;-70
2022/08/03 01:13:43;;;;;;;12.23;3.38;;;20.50;99.90;;;;;;5098241;28;20039;-70
2022/08/03 01:16:10;;;;;;;12.48;3.72;;;20.80;99.90;;;;;;5098303;28;20385;-70
2022/08/03 01:18:45;;;;;;;10.75;3.42;;;20.10;99.90;;;;;;5098265;28;20040;-69
2022/08/03 01:21:23;;;;;;;8.95;3.67;;;19.60;99.90;;;;;;5098490;28;20404;-70
2022/08/03 01:24:09;;;;;;;13.05;3.67;;;18.70;99.90;;;;;;5094957;28;20096;-70
2022/08/03 01:26:40;;;;;;;16.60;3.47;;;20.00;99.90;;;;;;5095129;28;20069;-70
2022/08/03 01:29:31;;;;;;;10.38;3.08;;;19.90;99.90;;;;;;5095010;28;20393;-70
2022/08/03 01:32:01;;;;;;;10.05;3.20;;;19.90;99.90;;;;;;5094952;28;20040;-70
2022/08/03 01:34:33;;;;;;;9.52;3.30;;;20.00;99.90;;;;;;5095039;28;20047;-69
2022/08/03 01:36:59;;;;;;;;;;;;;;;;;;5096504;28;20384;-70
2022/08/03 01:39:28;;;;;;;9.90;3.70;;;;;;;;;;5128836;27;19916;-69
2022/08/03 01:41:58;;;;;;;17.48;3.47;;;20.00;99.90;;;;;;5094714;28;20096;-70
2022/08/03 01:44:28;;;;;;;13.30;3.72;;;19.10;99.90;;;;;;5094655;28;20609;-70
2022/08/03 01:47:01;;;;;;;14.55;3.55;;;20.00;99.90;;;;;;5094565;28;20048;-70
2022/08/03 01:49:29;;;;;;;11.70;3.60;;;20.10;99.90;;;;;;5094902;28;20044;-70
2022/08/03 01:51:56;;;;;;;10.30;3.17;;;20.70;99.90;;;;;;5094765;28;20039;-70
2022/08/03 01:54:23;;;;;;;8.98;3.00;;;20.60;99.90;;;;;;5094440;28;20510;-70
2022/08/03 01:56:50;;;;;;;15.15;3.47;;;;;;;;;;5094491;28;20036;-70
2022/08/03 01:59:18;;;;;;;9.98;3.03;;;;;;;;;;5094751;28;20036;-70
2022/08/03 02:01:46;;;;;;;10.27;3.13;;;19.90;99.90;;;;;;5094558;28;20122;-70
2022/08/03 02:04:12;;;;;;;13.60;3.35;;;;;;;;;;5094224;28;20048;-70
2022/08/03 02:06:39;;;;;;;13.27;3.08;;;18.50;99.90;;;;;;5094373;28;20040;-70
2022/08/03 02:09:06;;;;;;;13.73;3.65;;;20.50;99.90;;;;;;5094124;28;20044;-70
2022/08/03 02:11:34;;;;;;;12.35;2.95;;;19.70;99.90;;;;;;5094141;28;20044;-70
2022/08/03 02:14:03;;;;;;;14.32;3.58;;;20.80;99.90;;;;;;5094319;28;20040;-70
2022/08/03 02:16:31;;;;;;;14.55;3.55;;;20.00;99.90;;;;;;5094247;28;20066;-70
2022/08/03 02:18:58;;;;;;;16.88;2.92;;;18.70;99.90;;;;;;5077120;28;20101;-70
2022/08/03 02:21:24;;;;;;;17.05;3.10;;;;;;;;;;5093974;28;20051;-70
2022/08/03 02:23:50;;;;;;;11.88;3.40;;;20.90;99.90;;;;;;5093870;28;20078;-70
2022/08/03 02:26:19;;;;;;;12.27;3.33;;;19.70;99.90;;;;;;5093859;28;20083;-70
2022/08/03 02:28:49;;;;;;;17.90;3.70;;;20.20;99.90;;;;;;5093625;28;20078;-70
2022/08/03 02:31:20;;;;;;;11.80;3.33;;;19.80;99.90;;;;;;5093802;28;20078;-69
2022/08/03 02:33:50;;;;;;;8.05;2.65;;;20.70;99.90;;;;;;5093743;28;20036;-70
2022/08/03 02:36:21;;;;;;;7.13;2.90;;;19.70;99.90;;;;;;5093683;28;20170;-70
2022/08/03 02:38:50;;;;;;;11.77;3.45;;;19.80;99.90;;;;;;5093884;28;20070;-70
2022/08/03 02:41:21;;;;;;;13.00;3.15;;;19.60;99.90;;;;;;5093353;28;20408;-70
2022/08/03 02:43:50;;;;;;;14.98;3.33;;;19.50;99.90;;;;;;5094694;28;20046;-70
2022/08/03 02:46:19;;;;;;;11.63;3.03;;;19.50;99.90;;;;;;5093585;28;20082;-70
2022/08/03 02:48:47;;;;;;;9.95;3.08;;;18.40;99.90;;;;;;5093398;28;20051;-70
2022/08/03 02:51:13;;;;;;;11.93;3.10;;;;;;;;;;5093675;28;20130;-70
2022/08/03 02:53:42;;;;;;;10.82;3.50;;;19.60;99.90;;;;;;5093103;28;20044;-70
2022/08/03 02:56:09;;;;;;;15.30;3.33;;;;;;;;;;5093186;28;20047;-69
2022/08/03 02:58:36;;;;;;;16.90;3.72;;;19.50;99.90;;;;;;5093557;28;20105;-70
2022/08/03 03:01:02;;;;;;;12.00;3.35;;;19.70;99.90;;;;;;5093176;28;20101;-70
2022/08/03 03:03:28;;;;;;;13.70;3.00;;;;;;;;;;5093211;28;20130;-70
2022/08/03 03:05:55;;;;;;;14.60;3.35;;;19.60;99.90;;;;;;5092941;28;20135;-70
2022/08/03 03:08:21;;;;;;;11.68;3.42;;;;;;;;;;5092846;28;20580;-70
2022/08/03 03:10:47;;;;;;;12.30;3.42;;;18.40;99.90;;;;;;5093176;28;20036;-70
2022/08/03 03:13:14;;;;;;;12.13;3.63;;;20.50;99.90;;;;;;5094207;28;20043;-70
2022/08/03 03:15:42;;;;;;;12.93;3.50;;;19.40;99.90;;;;;;5092925;28;20165;-70
2022/08/03 03:18:08;;;;;;;12.70;3.38;;;;;;;;;;5075847;28;20051;-69
2022/08/03 03:20:37;;;;;;;13.55;3.35;;;19.50;99.90;;;;;;5092839;28;20403;-70
2022/08/03 03:23:04;;;;;;;11.75;3.55;;;19.20;99.90;;;;;;5092841;28;20071;-70
2022/08/03 03:25:31;;;;;;;15.30;3.45;;;20.50;99.90;;;;;;5092960;28;20048;-70
2022/08/03 03:28:01;;;;;;;12.98;3.58;;;20.40;99.90;;;;;;5075709;28;20055;-70
2022/08/03 03:30:28;;;;;;;10.88;3.17;;;;;;;;;;5092537;28;20042;-70
2022/08/03 03:32:57;;;;;;;11.45;3.38;;;;;;;;;;5092742;28;20040;-70
2022/08/03 03:35:23;;;;;;;11.70;3.20;;;;;;;;;;5093804;28;20043;-70
2022/08/03 03:37:49;;;;;;;13.23;4.13;;;;;;;;;;5092678;28;20389;-69
2022/08/03 03:40:15;;;;;;;8.73;3.53;;;19.10;99.90;;;;;;5092372;28;20047;-69
2022/08/03 03:42:41;;;;;;;10.85;3.33;;;;;;;;;;5092338;28;20048;-70
2022/08/03 03:45:08;;;;;;;14.18;4.18;;;18.70;99.90;;;;;;5092300;28;20048;-70
2022/08/03 03:47:34;;;;;;;11.15;3.50;;;20.00;99.90;;;;;;5091728;28;20051;-70
2022/08/03 03:50:04;;;;;;;15.52;3.97;;;19.40;99.90;;;;;;5092301;28;20369;-70
2022/08/03 03:52:31;;;;;;;10.77;3.15;;;;;;;;;;5092399;28;20108;-70
2022/08/03 03:54:57;;;;;;;15.00;3.90;;;;;;;;;;5092063;28;20074;-70
2022/08/03 03:57:22;;;;;;;16.77;5.03;;;18.10;99.90;;;;;;5075305;28;20385;-70
2022/08/03 03:59:49;;;;;;;9.68;3.10;;;;;;;;;;5092221;28;20043;-70
2022/08/03 04:02:15;;;;;;;11.02;3.38;;;;;;;;;;5075458;28;20044;-70
2022/08/03 04:13:06;;;;;;;14.15;3.05;;;;;;;;;;5092365;28;20048;-70
2022/08/03 04:15:33;;;;;;;10.18;2.90;;;19.60;99.90;;;;;;5092262;28;20051;-70
2022/08/03 04:18:01;;;;;;;17.35;3.42;;;20.20;99.90;;;;;;5092051;28;20055;-70
2022/08/03 04:20:29;;;;;;;10.60;3.00;;;;;;;;;;5091998;28;20040;-70
2022/08/03 04:22:56;;;;;;;9.32;3.58;;;19.20;99.90;;;;;;5075036;28;20044;-70
2022/08/03 04:25:27;;;;;;;12.85;3.53;;;19.10;99.90;;;;;;5092159;28;20044;-70
2022/08/03 04:27:54;;;;;;;13.98;3.22;;;19.20;99.90;;;;;;5091838;28;20075;-70
2022/08/03 04:30:21;;;;;;;15.27;4.00;;;19.10;99.90;;;;;;5092192;28;20048;-70
2022/08/03 04:32:50;;;;;;;12.48;2.85;;;;;;;;;;5092108;28;20036;-69
2022/08/03 04:35:16;;;;;;;12.60;3.17;;;;;;;;;;5075263;28;20040;-70
2022/08/03 04:37:46;;;;;;;15.77;3.47;;;19.10;99.90;;;;;;5091792;28;20046;-70
2022/08/03 04:40:21;;;;;;;16.80;3.63;;;19.40;99.90;;;;;;5092133;28;20050;-70
2022/08/03 04:42:48;;;;;;;12.75;3.42;;;19.40;99.90;;;;;;5093207;28;20036;-70
2022/08/03 04:45:15;;;;;;;13.52;3.38;;;19.30;99.90;;;;;;5091786;28;20492;-70
2022/08/03 04:47:41;;;;;;;11.05;3.60;;;;;;;;;;5091545;28;20036;-70
2022/08/03 04:50:08;;;;;;;10.40;3.25;;;;;;;;;;5091645;28;20047;-70
2022/08/03 04:52:34;;;;;;;14.32;3.30;;;20.40;99.90;;;;;;5091621;28;20074;-71
2022/08/03 04:54:59;;;;;;;10.68;3.17;;;19.70;99.90;;;;;;5091682;28;20090;-70
2022/08/03 04:57:26;;;;;;;14.25;3.67;;;;;;;;;;5091700;28;20044;-70
2022/08/03 04:59:55;;;;;;;14.60;3.50;;;19.00;99.90;;;;;;5095011;28;20040;-70
2022/08/03 05:02:21;;;;;;;12.00;3.53;;;;;;;;;;5095406;28;20109;-70
2022/08/03 05:04:48;;;;;;;16.92;3.15;;;;;;;;;;5095090;28;20381;-70
2022/08/03 05:07:16;;;;;;;14.65;2.92;;;19.50;99.90;;;;;;5095194;28;20488;-70
2022/08/03 05:09:41;;;;;;;11.70;3.08;;;20.50;99.90;;;;;;5095304;28;20040;-70
2022/08/03 05:12:08;;;;;;;19.42;3.05;;;;;;;;;;5130015;27;20043;-70
2022/08/03 05:14:37;;;;;;;18.55;3.50;;;;;;;;;;5095202;28;20038;-70
2022/08/03 05:17:04;;;;;;;16.40;3.78;;;19.50;99.90;;;;;;5095121;28;20426;-70
2022/08/03 05:19:30;;;;;;;22.35;3.58;;;20.30;99.90;;;;;;5096601;28;20047;-70
2022/08/03 05:21:56;;;;;;;16.63;3.20;;;18.30;99.90;;;;;;5095230;28;20075;-70
2022/08/03 05:24:22;;;;;;;17.20;3.33;;;20.30;99.90;;;;;;5095144;28;20072;-70
2022/08/03 05:26:48;;;;;;;13.35;3.38;;;;;;;;;;5094934;28;20071;-70
2022/08/03 05:29:14;;;;;;;17.23;3.45;;;19.70;99.90;;;;;;5094869;28;20081;-70
2022/08/03 05:31:40;;;;;;;13.13;3.80;;;20.60;99.90;;;;;;5078364;28;20036;-70
2022/08/03 05:34:06;;;;;;;12.63;3.60;;;;;;;;;;5094773;28;20083;-70
2022/08/03 05:36:31;;;;;;;14.60;3.63;;;18.50;99.90;;;;;;5094801;28;20036;-70
2022/08/03 05:38:57;;;;;;;14.57;4.05;;;;;;;;;;5095126;28;20044;-70
2022/08/03 05:41:23;;;;;;;13.57;3.78;;;18.70;99.90;;;;;;5095831;28;20044;-70
2022/08/03 05:43:50;;;;;;;16.27;3.33;;;;;;;;;;5094716;28;20040;-70
2022/08/03 05:46:15;;;;;;;14.13;3.58;;;19.20;99.90;;;;;;5096196;28;20039;-70
2022/08/03 05:48:42;;;;;;;15.45;3.17;;;19.90;99.90;;;;;;5077621;28;20484;-70
2022/08/03 05:51:10;;;;;;;20.70;3.40;;;19.90;99.90;;;;;;5094475;28;20039;-70
2022/08/03 05:53:36;;;;;;;11.68;3.35;;;19.80;99.90;;;;;;5094458;28;20533;-70
2022/08/03 05:56:02;;;;;;;14.57;3.70;;;;;;;;;;5094471;28;20040;-70
2022/08/03 05:58:28;;;;;;;20.40;3.60;;;;;;;;;;5094336;28;20411;-70
2022/08/03 06:00:55;;;;;;;19.38;3.88;;;;;;;;;;5094342;28;20040;-70
2022/08/03 06:03:21;;;;;;;17.50;3.53;;;;;;;;;;5061000;28;20127;-70
2022/08/03 06:05:46;;;;;;;19.20;3.30;;;21.20;99.90;;;;;;5094311;28;20082;-70
2022/08/03 06:08:13;;;;;;;22.05;3.92;;;19.30;99.90;;;;;;5094348;28;20113;-70
2022/08/03 06:10:39;;;;;;;12.45;3.55;;;;;;;;;;5094869;28;20373;-70
2022/08/03 06:13:05;;;;;;;14.00;4.25;;;20.70;99.90;;;;;;5093778;28;20036;-69
2022/08/03 06:15:32;;;;;;;20.20;3.95;;;;;;;;;;5093857;28;20032;-70
2022/08/03 06:17:58;;;;;;;24.75;4.32;;;;;;;;;;5093761;28;20047;-70
2022/08/03 06:20:24;;;;;;;23.85;4.30;;;20.20;99.90;;;;;;5093980;28;20047;-70
2022/08/03 06:22:50;;;;;;;20.33;4.35;;;;;;;;;;5093767;28;20040;-70
2022/08/03 06:25:19;;;;;;;21.75;5.18;;;21.30;99.90;;;;;;5093832;28;20141;-70
2022/08/03 06:27:46;;;;;;;21.08;3.97;;;;;;;;;;5093870;28;20368;-70
2022/08/03 06:30:13;;;;;;;15.23;3.60;;;19.60;99.90;;;;;;5093711;28;20173;-70
2022/08/03 06:32:39;;;;;;;21.00;4.38;;;;;;;;;;5093784;28;20044;-70
2022/08/03 06:35:07;;;;;;;21.80;3.92;;;20.50;99.90;;;;;;5093312;28;20507;-70
2022/08/03 06:37:47;;;;;;;23.92;4.18;;;20.80;99.90;;;;;;5093648;28;20046;-70
2022/08/03 06:40:14;;;;;;;21.15;4.38;;;20.80;99.90;;;;;;5093640;28;20048;-70
2022/08/03 06:42:40;;;;;;;20.98;3.90;;;21.60;99.90;;;;;;5076899;28;20048;-70
2022/08/03 06:45:07;;;;;;;17.23;4.55;;;;;;;;;;5093381;28;20051;-70
2022/08/03 06:47:34;;;;;;;16.80;3.85;;;;;;;;;;5076831;28;20488;-70
2022/08/03 06:50:00;;;;;;;24.00;4.80;;;;;;;;;;5093324;28;20123;-70
2022/08/03 06:52:26;;;;;;;22.77;4.55;;;;;;;;;;5093257;28;20040;-70
2022/08/03 06:54:52;;;;;;;20.75;4.60;;;;;;;;;;5093211;28;20047;-70
2022/08/03 06:57:18;;;;;;;20.23;4.47;;;20.50;99.90;;;;;;5093120;28;20123;-70
2022/08/03 06:59:44;;;;;;;23.25;4.63;;;;;;;;;;5076216;28;20090;-70
2022/08/03 07:02:10;;;;;;;17.40;4.90;;;;;;;;;;5093019;28;20048;-70
2022/08/03 07:04:37;;;;;;;26.13;6.38;;;;;;;;;;5092996;28;20109;-70
2022/08/03 07:07:02;;;;;;;17.27;4.28;;;20.70;99.90;;;;;;5076348;28;20389;-70
2022/08/03 07:09:29;;;;;;;21.15;4.75;;;;;;;;;;5092966;28;20040;-70
2022/08/03 07:11:55;;;;;;;24.67;6.00;;;;;;;;;;5076244;28;20447;-70
2022/08/03 07:14:21;;;;;;;22.65;4.55;;;21.10;99.90;;;;;;5092945;28;20115;-70
2022/08/03 07:16:48;;;;;;;24.48;5.57;;;;;;;;;;5092802;28;20124;-70
2022/08/03 07:19:14;;;;;;;26.80;4.60;;;;;;;;;;5092964;28;20082;-70
2022/08/03 07:21:40;;;;;;;18.58;4.90;;;;;;;;;;5092164;28;20039;-70
2022/08/03 07:24:06;;;;;;;22.52;4.55;;;;;;;;;;5092904;28;20043;-70
2022/08/03 07:26:32;;;;;;;21.15;4.88;;;20.10;99.90;;;;;;5093014;28;20079;-70
2022/08/03 07:28:59;;;;;;;29.85;5.93;;;;;;;;;;5093903;28;20068;-70
2022/08/03 07:31:25;;;;;;;16.77;4.47;;;;;;;;;;5092575;28;20492;-70
2022/08/03 07:33:51;;;;;;;22.67;5.45;;;;;;;;;;5076068;28;20047;-70
2022/08/03 07:36:17;;;;;;;21.05;5.43;;;22.20;99.90;;;;;;5092529;28;20036;-70
2022/08/03 07:38:43;;;;;;;20.20;5.05;;;;;;;;;;5092577;28;20035;-70
2022/08/03 07:41:09;;;;;;;26.70;6.15;;;;;;;;;;5075563;28;20143;-70
2022/08/03 07:43:35;;;;;;;21.60;5.43;;;;;;;;;;5092443;28;20052;-70
2022/08/03 07:46:01;;;;;;;25.25;5.15;;;;;;;;;;5092657;28;20126;-70
2022/08/03 07:48:27;;;;;;;21.83;6.07;;;21.20;99.90;;;;;;5092233;28;20044;-70
2022/08/03 07:50:53;;;;;;;25.38;5.45;;;;;;;;;;5092354;28;20040;-70
2022/08/03 07:53:19;;;;;;;23.02;5.78;;;;;;;;;;5092114;28;20113;-70
2022/08/03 07:55:45;;;;;;;22.50;6.07;;;;;;;;;;5092089;28;20067;-70
2022/08/03 07:58:14;;;;;;;30.58;6.53;;;22.50;99.90;;;;;;5092153;28;20047;-70
2022/08/03 08:00:41;;;;;;;29.92;6.50;;;21.60;99.90;;;;;;5092393;28;20116;-70
2022/08/03 08:03:06;;;;;;;26.45;6.30;;;22.50;99.90;;;;;;5075307;28;20048;-70
2022/08/03 08:05:33;;;;;;;23.38;7.32;;;21.60;99.90;;;;;;5092078;28;20052;-70
2022/08/03 08:08:00;;;;;;;21.55;5.72;;;21.60;99.90;;;;;;5092382;28;20043;-70
2022/08/03 08:10:26;;;;;;;28.85;6.38;;;22.00;99.90;;;;;;5092096;28;20040;-70
2022/08/03 08:12:52;;;;;;;23.98;6.15;;;22.50;99.90;;;;;;5092337;28;20369;-70
2022/08/03 08:15:18;;;;;;;23.98;6.40;;;;;;;;;;5091990;28;20044;-70
2022/08/03 08:17:45;;;;;;;23.85;6.30;;;;;;;;;;5092010;28;20123;-70
2022/08/03 08:20:15;;;;;;;26.02;7.78;;;22.00;99.90;;;;;;5091988;28;20093;-70
2022/08/03 08:22:41;;;;;;;26.63;7.15;;;22.20;99.90;;;;;;5092093;28;20043;-70
2022/08/03 08:25:07;;;;;;;21.05;6.72;;;;;;;;;;5092011;28;20043;-70
2022/08/03 08:27:33;;;;;;;22.02;7.35;;;;;;;;;;5091969;28;20044;-70
2022/08/03 08:29:59;;;;;;;23.60;5.97;;;;;;;;;;5092053;28;20160;-70
2022/08/03 08:32:25;;;;;;;28.67;8.15;;;21.90;99.90;;;;;;5092843;28;20500;-70
2022/08/03 08:34:52;;;;;;;20.55;6.70;;;;;;;;;;5096194;28;20042;-70
2022/08/03 08:37:17;;;;;;;30.23;7.93;;;22.20;99.90;;;;;;5096275;28;20052;-70
2022/08/03 08:39:43;;;;;;;25.63;8.05;;;23.00;99.90;;;;;;5095953;28;20036;-70
2022/08/03 08:42:09;;;;;;;24.23;7.45;;;;;;;;;;5078868;28;20051;-70
2022/08/03 08:44:35;;;;;;;22.50;7.68;;;;;;;;;;5096042;28;20082;-70
2022/08/03 08:47:02;;;;;;;31.35;8.27;;;23.20;99.90;;;;;;5078865;28;20487;-70
2022/08/03 08:49:29;;;;;;;16.70;7.20;;;22.50;99.90;;;;;;5095872;28;20040;-70
2022/08/03 08:51:56;;;;;;;23.73;8.27;;;22.40;99.90;;;;;;5095575;28;20051;-70
2022/08/03 08:54:23;;;;;;;32.58;9.02;;;22.40;99.90;;;;;;5095524;28;20040;-70
2022/08/03 08:56:54;;;;;;;22.58;7.57;;;23.60;99.90;;;;;;5095515;28;20040;-70
2022/08/03 08:59:24;;;;;;;19.67;7.72;;;23.10;99.90;;;;;;5095579;28;20040;-72
2022/08/03 09:01:49;;;;;;;21.13;7.38;;;22.70;99.90;;;;;;5078553;28;20058;-70
2022/08/03 09:04:15;;;;;;;25.20;7.72;;;;;;;;;;5095616;28;20044;-70
2022/08/03 09:06:41;;;;;;;26.10;7.65;;;23.70;99.90;;;;;;5095296;28;20090;-70
2022/08/03 09:09:07;;;;;;;18.75;7.07;;;;;;;;;;5095284;28;20076;-70
2022/08/03 09:11:33;;;;;;;26.02;7.65;;;22.20;99.90;;;;;;5095328;28;20040;-70
2022/08/03 09:13:59;;;;;;;28.80;7.63;;;;;;;;;;5095275;28;20044;-70
2022/08/03 09:16:25;;;;;;;22.23;7.80;;;;;;;;;;5095248;28;20067;-70
2022/08/03 09:18:54;;;;;;;26.27;8.73;;;23.60;99.90;;;;;;5095452;28;20040;-70
2022/08/03 09:21:38;;;;;;;21.45;7.55;;;24.00;99.90;;;;;;5095073;28;20089;-70
2022/08/03 09:24:05;;;;;;;24.13;8.40;;;23.40;99.90;;;;;;5096678;28;20199;-70
2022/08/03 09:26:34;;;;;;;27.63;8.73;;;23.50;99.90;;;;;;5095085;28;20104;-70
2022/08/03 09:29:08;;;;;;;30.48;9.23;;;24.30;99.90;;;;;;5094915;28;20047;-70
2022/08/03 09:31:43;;;;;;;19.55;9.05;;;24.20;99.90;;;;;;5094909;28;20040;-70
2022/08/03 09:34:12;;;;;;;33.25;9.23;;;23.70;99.80;;;;;;5078326;28;20047;-70
2022/08/03 09:36:49;;;;;;;30.65;10.05;;;23.90;98.70;;;;;;5094886;28;20043;-70
2022/08/03 09:39:17;;;;;;;25.58;9.25;;;24.50;99.90;;;;;;5094963;28;20419;-70
2022/08/03 09:41:45;;;;;;;28.17;9.93;;;24.50;99.90;;;;;;5095163;28;20052;-70
2022/08/03 09:44:12;;;;;;;26.98;11.05;;;24.20;99.40;;;;;;5093838;28;20044;-70
2022/08/03 09:46:52;;;;;;;26.25;10.13;;;24.50;99.90;;;;;;5094683;28;20119;-70
2022/08/03 09:49:17;;;;;;;27.17;10.27;;;23.10;99.90;;;;;;5094448;28;20075;-70
2022/08/03 09:51:45;;;;;;;32.47;9.82;;;24.40;99.90;;;;;;5094424;28;20076;-70
2022/08/03 09:54:11;;;;;;;24.13;10.90;;;24.70;99.70;;;;;;5094542;28;20399;-70
2022/08/03 09:56:39;;;;;;;29.90;10.65;;;22.80;99.20;;;;;;5094372;28;20044;-70
2022/08/03 09:59:04;;;;;;;37.72;10.70;;;24.20;99.90;;;;;;5094676;28;20125;-70
2022/08/03 10:01:34;;;;;;;28.50;11.35;;;24.20;99.90;;;;;;5094324;28;20483;-70
2022/08/03 10:04:00;;;;;;;29.27;9.63;;;23.60;99.90;;;;;;5077627;28;20051;-71
2022/08/03 10:06:26;;;;;;;31.80;10.60;;;23.20;99.90;;;;;;5094221;28;20066;-70
2022/08/03 10:09:06;;;;;;;27.77;10.43;;;24.20;99.90;;;;;;5094216;28;20131;-70
2022/08/03 10:11:33;;;;;;;25.25;10.85;;;24.60;99.90;;;;;;5095492;28;20048;-70
2022/08/03 10:14:03;;;;;;;28.98;10.38;;;22.90;99.90;;;;;;5094415;28;20055;-70
2022/08/03 10:16:36;;;;;;;32.47;10.77;;;24.00;99.90;;;;;;5094132;28;20044;-70
2022/08/03 10:19:05;;;;;;;30.63;10.13;;;24.70;99.90;;;;;;5094164;28;20039;-70
2022/08/03 10:21:34;;;;;;;29.33;10.32;;;24.90;99.90;;;;;;5093947;28;20044;-70
2022/08/03 10:24:08;;;;;;;24.83;9.73;;;24.90;99.90;;;;;;5095948;28;20040;-70
2022/08/03 10:26:36;;;;;;;26.27;10.52;;;24.90;99.90;;;;;;5094155;28;20476;-70
2022/08/03 10:29:07;;;;;;;25.63;10.68;;;24.40;98.50;;;;;;5094945;28;20122;-70
2022/08/03 10:31:45;;;;;;;32.13;10.85;;;25.20;99.90;;;;;;5095098;28;20127;-70
2022/08/03 10:34:19;;;;;;;34.38;10.40;;;24.20;99.90;;;;;;5093745;28;20043;-70
2022/08/03 10:36:46;;;;;;;27.35;10.38;;;24.60;99.90;;;;;;5093699;28;20400;-70
2022/08/03 10:39:13;;;;;;;26.60;10.27;;;25.30;99.90;;;;;;5093592;28;20046;-70
2022/08/03 10:41:41;;;;;;;28.15;8.85;;;24.70;99.90;;;;;;5093490;28;20052;-70
2022/08/03 10:44:17;;;;;;;27.63;8.80;;;24.60;99.90;;;;;;5093430;28;20127;-70
2022/08/03 10:46:45;;;;;;;28.90;10.00;;;24.50;98.20;;;;;;5093394;28;20044;-70
2022/08/03 10:49:16;;;;;;;36.78;10.13;;;25.60;98.50;;;;;;5094846;28;20044;-70
2022/08/03 10:51:44;;;;;;;27.03;9.43;;;25.20;97.20;;;;;;5093309;28;20128;-70
2022/08/03 10:57:47;;;;;;;24.38;8.27;;;25.70;99.90;;;;;;5093450;28;20067;-70
2022/08/03 11:00:21;;;;;;;24.17;8.00;;;25.40;99.90;;;;;;5093207;28;20051;-70
2022/08/03 11:03:08;;;;;;;28.08;7.95;;;25.30;99.90;;;;;;5093217;28;20507;-70
2022/08/03 11:05:39;;;;;;;28.90;8.60;;;25.60;99.90;;;;;;5075835;28;20056;-70
2022/08/03 11:08:24;;;;;;;24.40;6.43;;;25.10;99.90;;;;;;5093325;28;20102;-70
2022/08/03 11:10:53;;;;;;;33.22;8.13;;;26.10;97.30;;;;;;5093177;28;20040;-70
2022/08/03 11:13:21;;;;;;;23.92;7.30;;;25.80;99.80;;;;;;5110325;28;20055;-70
2022/08/03 11:15:50;;;;;;;25.40;8.25;;;24.90;99.30;;;;;;5076065;28;20039;-70
2022/08/03 11:18:17;;;;;;;21.98;6.47;;;25.40;99.50;;;;;;5092838;28;20048;-70
2022/08/03 11:20:48;;;;;;;21.35;7.95;;;25.90;99.70;;;;;;5092736;28;20488;-70
2022/08/03 11:23:15;;;;;;;27.17;7.43;;;26.30;99.70;;;;;;5092860;28;20048;-70
2022/08/03 11:26:10;;;;;;;27.90;7.57;;;26.30;99.60;;;;;;5075738;28;20048;-70
2022/08/03 11:28:37;;;;;;;22.75;7.55;;;26.50;99.30;;;;;;5092638;28;20123;-70
2022/08/03 11:31:21;;;;;;;24.63;8.23;;;26.60;99.10;;;;;;5075889;28;20043;-70
2022/08/03 11:34:04;;;;;;;21.90;7.38;;;26.50;98.80;;;;;;5092669;28;20089;-70
2022/08/03 11:36:30;;;;;;;29.63;8.68;;;26.70;98.10;;;;;;5092525;28;20507;-70
2022/08/03 11:39:13;;;;;;;25.48;8.30;;;25.40;98.60;;;;;;5092476;28;20044;-70
2022/08/03 11:41:38;;;;;;;23.58;6.82;;;26.10;98.80;;;;;;5092775;28;20438;-70
2022/08/03 11:44:04;;;;;;;27.63;8.02;;;26.90;98.70;;;;;;5092734;28;20046;-70
2022/08/03 11:46:36;;;;;;;28.20;8.30;;;26.90;97.00;;;;;;5092361;28;20510;-70
2022/08/03 11:49:08;;;;;;;26.88;7.50;;;26.90;98.00;;;;;;5092374;28;20427;-70
2022/08/03 11:51:34;;;;;;;28.92;8.00;;;26.20;97.70;;;;;;5075871;28;20032;-70
2022/08/03 11:54:02;;;;;;;34.20;8.20;;;27.20;96.50;;;;;;5092275;28;20036;-70
2022/08/03 11:56:42;;;;;;;22.90;7.35;;;26.50;97.60;;;;;;5093530;28;20078;-70
2022/08/03 11:59:08;;;;;;;24.90;7.90;;;27.30;97.70;;;;;;5092187;28;20040;-70
2022/08/03 12:01:34;;;;;;;22.83;6.38;;;;;;;;;;5092335;28;20040;-70
2022/08/03 12:04:04;;;;;;;26.38;6.95;;;27.00;92.10;;;;;;5092029;28;20123;-71
2022/08/03 12:06:29;;;;;;;25.17;6.45;;;26.10;95.60;;;;;;5092222;28;20404;-70
2022/08/03 12:08:55;;;;;;;22.92;5.88;;;;;;;;;;5092990;28;20040;-70
2022/08/03 12:11:22;;;;;;;26.35;6.57;;;27.10;97.50;;;;;;5092185;28;20040;-70
2022/08/03 12:13:50;;;;;;;24.70;5.75;;;26.50;92.90;;;;;;5092053;28;20055;-70
2022/08/03 12:16:20;;;;;;;23.08;5.75;;;26.80;97.50;;;;;;5092159;28;20050;-70
2022/08/03 12:19:00;;;;;;;24.38;5.50;;;26.70;92.40;;;;;;5092141;28;20039;-70
2022/08/03 12:21:27;;;;;;;16.88;4.82;;;25.90;97.10;;;;;;5092100;28;20036;-70
2022/08/03 12:24:02;;;;;;;20.52;5.53;;;26.40;94.00;;;;;;5092340;28;20422;-70
2022/08/03 12:26:29;;;;;;;26.70;5.13;;;26.70;96.80;;;;;;5091950;28;20404;-70
2022/08/03 12:28:55;;;;;;;22.90;4.72;;;;;;;;;;5091975;28;20117;-70
2022/08/03 12:31:21;;;;;;;26.13;5.60;;;;;;;;;;5092006;28;20043;-70
2022/08/03 12:33:58;;;;;;;35.00;5.72;;;27.20;96.80;;;;;;5092216;28;20068;-70
2022/08/03 12:36:23;;;;;;;20.27;5.30;;;26.30;96.60;;;;;;5091933;28;20040;-70
2022/08/03 12:38:57;;;;;;;22.48;5.30;;;27.20;96.90;;;;;;5091965;28;20139;-70
2022/08/03 12:41:32;;;;;;;22.77;5.72;;;27.00;96.50;;;;;;5091859;28;20097;-70
2022/08/03 12:43:58;;;;;;;23.75;5.72;;;26.30;96.20;;;;;;5075082;28;20388;-70
2022/08/03 12:46:30;;;;;;;27.92;6.45;;;26.50;96.60;;;;;;5091681;28;20101;-70
2022/08/03 12:49:00;;;;;;;;;;;26.30;92.90;;;;;;5092156;28;20068;-70
2022/08/03 12:51:28;;;;;;;24.88;6.07;;;26.60;95.40;;;;;;5092047;28;20049;-70
2022/08/03 12:53:55;;;;;;;25.40;5.60;;;26.20;97.10;;;;;;5091715;28;20483;-70
2022/08/03 12:56:21;;;;;;;23.08;6.05;;;;;;;;;;5094369;28;20093;-70
2022/08/03 12:58:47;;;;;;;26.33;5.10;;;27.00;97.00;;;;;;5091762;28;20040;-70
2022/08/03 13:01:13;;;;;;;23.80;5.40;;;27.30;96.90;;;;;;5091867;28;20048;-70
2022/08/03 13:03:47;;;;;;;24.45;6.30;;;27.00;96.40;;;;;;5091729;28;20076;-70
2022/08/03 13:06:24;;;;;;;23.77;5.82;;;27.20;96.50;;;;;;5091483;28;20060;-70
2022/08/03 13:09:05;;;;;;;33.85;6.78;;;27.10;96.50;;;;;;5091591;28;20552;-70
2022/08/03 13:11:31;;;;;;;20.17;5.63;;;;;;;;;;5091703;28;20047;-70
2022/08/03 13:13:57;;;;;;;22.05;5.40;;;27.50;95.00;;;;;;5074885;28;20043;-70
2022/08/03 13:16:23;;;;;;;24.55;6.28;;;27.40;96.20;;;;;;5091914;28;20167;-70
2022/08/03 13:18:50;;;;;;;21.30;5.90;;;27.30;96.00;;;;;;5091557;28;20048;-70
2022/08/03 13:21:17;;;;;;;22.85;5.65;;;27.60;95.90;;;;;;5095223;28;20039;-70
2022/08/03 13:23:44;;;;;;;28.67;6.13;;;27.60;95.90;;;;;;5095312;28;21049;-70
2022/08/03 13:26:11;;;;;;;22.50;6.10;;;27.30;95.80;;;;;;5095148;28;20480;-70